Time;durP1;ratioP1;P1;durP2;ratioP2;P2;SDS_P1;SDS_P2;PMS_P1;PMS_P2;Temp;Humidity;BMP_temperature;BMP_pressure;BME280_temperature;BME280_humidity;BME280_pressure;Samples;Min_cycle;Max_cycle;Signal;HPM_P1;HPM_P2
2022/01/04 00:00:29;;;;;;;34.70;11.65;;;;;;;;;;5035728;28;92255;-71
2022/01/04 00:02:56;;;;;;;26.65;13.07;;;;;;;;;;5036134;28;92836;-71
2022/01/04 00:05:23;;;;;;;27.92;12.45;;;;;;;;;;5035902;28;93554;-71
2022/01/04 00:07:50;;;;;;;30.38;11.98;;;;;;;;;;5036027;28;92378;-71
2022/01/04 00:10:21;;;;;;;21.95;12.45;;;;;;;;;;5039466;28;92916;-70
2022/01/04 00:15:33;;;;;;;27.92;13.55;;;;;;;;;;5035511;28;93490;-71
2022/01/04 00:17:59;;;;;;;23.70;12.60;;;;;;;;;;5033995;28;96599;-71
2022/01/04 00:20:26;;;;;;;21.73;12.93;;;;;;;;;;5035847;28;92447;-71
2022/01/04 00:22:52;;;;;;;28.40;13.55;;;;;;;;;;5035786;28;93587;-71
2022/01/04 00:25:19;;;;;;;26.33;12.95;;;;;;;;;;5035279;28;92946;-71
2022/01/04 00:27:45;;;;;;;20.88;12.55;;;;;;;;;;5035809;28;92218;-71
2022/01/04 00:30:11;;;;;;;24.08;13.35;;;;;;;;;;5035344;28;94787;-70
2022/01/04 00:32:38;;;;;;;25.88;13.43;;;;;;;;;;5038761;28;93618;-70
2022/01/04 00:35:04;;;;;;;37.10;14.27;;;;;;;;;;5035458;28;93634;-71
2022/01/04 00:37:31;;;;;;;26.88;13.40;;;;;;;;;;5035449;28;93985;-71
2022/01/04 00:39:58;;;;;;;28.58;13.98;;;;;;;;;;5035136;28;92345;-71
2022/01/04 00:42:24;;;;;;;26.63;14.32;;;;;;;;;;5033920;28;94837;-71
2022/01/04 00:44:50;;;;;;;36.92;14.75;;;;;;;;;;5035438;28;93527;-71
2022/01/04 00:47:19;;;;;;;32.20;15.20;;;;;;;;;;5035416;28;92289;-70
2022/01/04 00:49:46;;;;;;;25.45;13.50;;;;;;;;;;5035495;28;93568;-71
2022/01/04 00:52:16;;;;;;;26.15;15.40;;;;;;;;;;5035363;27;93530;-71
2022/01/04 00:54:43;;;;;;;27.30;13.98;;;;;;;;;;5040427;28;92250;-71
2022/01/04 00:57:09;;;;;;;24.25;14.40;;;;;;;;;;5038553;28;93634;-71
2022/01/04 00:59:36;;;;;;;31.77;14.40;;;;;;;;;;5039224;28;91420;-71
2022/01/04 01:02:02;;;;;;;31.40;15.32;;;;;;;;;;5038644;28;93243;-71
2022/01/04 01:04:29;;;;;;;25.67;13.75;;;;;;;;;;5038840;28;93016;-71
2022/01/04 01:06:56;;;;;;;24.08;14.50;;;;;;;;;;5036867;28;94653;-71
2022/01/04 01:09:26;;;;;;;28.13;13.85;;;;;;;;;;5038031;28;96024;-71
2022/01/04 01:11:52;;;;;;;24.65;14.18;;;;;;;;;;5038416;28;93675;-71
2022/01/04 01:14:19;;;;;;;28.45;14.95;;;;;;;;;;5041630;28;92181;-71
2022/01/04 01:16:45;;;;;;;29.00;14.45;;;;;;;;;;5037911;28;93681;-70
2022/01/04 01:19:12;;;;;;;24.45;14.63;;;;;;;;;;5020769;28;92365;-71
2022/01/04 01:21:38;;;;;;;22.17;14.25;;;;;;;;;;5038049;28;93026;-72
2022/01/04 01:24:05;;;;;;;23.27;14.10;;;;;;;;;;5038359;28;92420;-71
2022/01/04 01:26:31;;;;;;;24.92;13.95;;;;;;;;;;5038564;28;92522;-70
2022/01/04 01:28:58;;;;;;;26.77;13.57;;;;;;;;;;5038276;28;93390;-70
2022/01/04 01:31:24;;;;;;;22.05;14.75;;;;;;;;;;5036032;28;96230;-71
2022/01/04 01:33:51;;;;;;;25.58;15.68;;;;;;;;;;5038254;28;92345;-71
2022/01/04 01:36:17;;;;;;;26.13;15.10;;;;;;;;;;5040536;28;93537;-71
2022/01/04 01:38:44;;;;;;;26.02;14.60;;;;;;;;;;5038143;28;92279;-71
2022/01/04 01:41:11;;;;;;;27.02;15.48;;;;;;;;;;5036718;27;93555;-72
2022/01/04 01:43:38;;;;;;;27.98;14.77;;;;;;;;;;5058340;27;93796;-71
2022/01/04 01:46:04;;;;;;;27.30;15.77;;;;;;;;;;5058254;27;92228;-71
2022/01/04 01:48:30;;;;;;;26.92;15.80;;;;;;;;;;5058849;27;92362;-71
2022/01/04 01:50:57;;;;;;;22.15;14.18;;;;;;;;;;5057745;27;93927;-71
2022/01/04 01:53:23;;;;;;;29.63;14.65;;;;;;;;;;5058077;27;92160;-71
2022/01/04 01:55:50;;;;;;;27.08;15.13;;;;;;;;;;5056651;27;94750;-71
2022/01/04 01:58:16;;;;;;;25.60;14.60;;;;;;;;;;5061124;27;93949;-70
2022/01/04 02:00:42;;;;;;;25.15;15.00;;;;;;;;;;5058220;27;93556;-71
2022/01/04 02:03:09;;;;;;;29.00;14.85;;;;;;;;;;5058041;27;92656;-70
2022/01/04 02:05:35;;;;;;;28.77;15.30;;;;;;;;;;5057191;27;92345;-71
2022/01/04 02:08:03;;;;;;;30.48;16.33;;;;;;;;;;5058072;27;93907;-71
2022/01/04 02:10:30;;;;;;;21.58;13.82;;;;;;;;;;5057723;27;93776;-70
2022/01/04 02:12:56;;;;;;;23.15;14.13;;;;;;;;;;5058297;27;91619;-71
2022/01/04 02:15:24;;;;;;;26.65;15.30;;;;;;;;;;5057870;27;93001;-71
2022/01/04 02:17:51;;;;;;;24.55;13.98;;;;;;;;;;5057394;27;92686;-71
2022/01/04 02:20:18;;;;;;;29.48;14.75;;;;;;;;;;5059559;27;95148;-71
2022/01/04 02:22:44;;;;;;;20.67;13.85;;;;;;;;;;5057514;27;92674;-70
2022/01/04 02:25:11;;;;;;;26.25;13.95;;;;;;;;;;5057773;27;92203;-71
2022/01/04 02:27:38;;;;;;;25.85;14.43;;;;;;;;;;5057660;27;93932;-71
2022/01/04 02:30:06;;;;;;;25.05;14.57;;;;;;;;;;5057597;27;93645;-71
2022/01/04 02:32:32;;;;;;;26.08;14.35;;;;;;;;;;5057289;27;92348;-71
2022/01/04 02:34:59;;;;;;;26.77;13.90;;;;;;;;;;5057273;27;93406;-71
2022/01/04 02:37:26;;;;;;;19.45;14.55;;;;;;;;;;5057962;27;92759;-71
2022/01/04 02:39:53;;;;;;;18.50;13.70;;;;;;;;;;5057710;27;92401;-71
2022/01/04 02:42:20;;;;;;;22.02;14.68;;;;;;;;;;5060426;27;92989;-70
2022/01/04 02:44:47;;;;;;;24.25;15.90;;;;;;;;;;5055718;27;94669;-71
2022/01/04 02:47:14;;;;;;;21.75;14.75;;;;;;;;;;5056773;27;95950;-70
2022/01/04 02:49:40;;;;;;;25.55;16.13;;;;;;;;;;5057181;27;93805;-70
2022/01/04 02:52:07;;;;;;;23.38;16.45;;;;;;;;;;5057201;27;92405;-71
2022/01/04 02:54:33;;;;;;;18.83;15.10;;;;;;;;;;5057327;27;93800;-71
2022/01/04 02:57:00;;;;;;;23.20;15.57;;;;;;;;;;5039338;27;93665;-71
2022/01/04 02:59:27;;;;;;;26.67;16.38;;;;;;;;;;5057054;27;92397;-71
2022/01/04 03:01:53;;;;;;;26.77;17.27;;;;;;;;;;5060581;27;93444;-71
2022/01/04 03:04:20;;;;;;;20.83;16.40;;;;;;;;;;5057159;27;92177;-71
2022/01/04 03:06:46;;;;;;;25.75;17.17;;;;;;;;;;5057037;27;93496;-71
2022/01/04 03:09:13;;;;;;;22.80;17.42;;;;;;;;;;5055340;27;96124;-71
2022/01/04 03:11:39;;;;;;;23.70;16.90;;;;;;;;;;5056987;27;92368;-71
2022/01/04 03:14:05;;;;;;;21.08;16.27;;;;;;;;;;5056924;27;93040;-71
2022/01/04 03:16:32;;;;;;;22.90;16.75;;;;;;;;;;5055149;27;93507;-71
2022/01/04 03:19:07;;;;;;;34.22;16.40;;;;;;;;;;5056948;27;93186;-71
2022/01/04 03:21:34;;;;;;;22.25;16.30;;;;;;;;;;5056588;27;93638;-71
2022/01/04 03:24:01;;;;;;;21.88;16.13;;;;;;;;;;5059806;27;94072;-71
2022/01/04 03:26:28;;;;;;;26.73;16.15;;;;;;;;;;5057364;27;93356;-70
2022/01/04 03:28:54;;;;;;;21.58;16.50;;;;;;;;;;5056231;27;93607;-71
2022/01/04 03:31:21;;;;;;;22.30;16.33;;;;;;;;;;5056801;27;92376;-71
2022/01/04 03:33:47;;;;;;;27.30;16.88;;;;;;;;;;5055214;27;94751;-71
2022/01/04 03:36:14;;;;;;;26.48;15.93;;;;;;;;;;5056578;27;93696;-71
2022/01/04 03:38:42;;;;;;;26.38;16.45;;;;;;;;;;5056652;27;92246;-71
2022/01/04 03:41:09;;;;;;;25.63;17.13;;;;;;;;;;5038891;27;93403;-71
2022/01/04 03:43:37;;;;;;;23.80;17.35;;;;;;;;;;5056020;27;94081;-70
2022/01/04 03:46:04;;;;;;;21.77;16.75;;;;;;;;;;5059803;27;92371;-71
2022/01/04 03:48:31;;;;;;;29.92;17.38;;;;;;;;;;5056507;27;93359;-71
2022/01/04 03:50:57;;;;;;;23.20;16.38;;;;;;;;;;5056998;27;91524;-71
2022/01/04 03:53:23;;;;;;;26.08;16.40;;;;;;;;;;5056540;27;92911;-71
2022/01/04 03:55:50;;;;;;;24.52;16.90;;;;;;;;;;5056326;27;93440;-71
2022/01/04 03:58:16;;;;;;;26.40;18.05;;;;;;;;;;5054150;27;94702;-71
2022/01/04 04:00:42;;;;;;;27.83;18.13;;;;;;;;;;5056211;27;95894;-71
2022/01/04 04:03:09;;;;;;;28.90;18.10;;;;;;;;;;5056230;27;93607;-71
2022/01/04 04:05:35;;;;;;;35.38;18.17;;;;;;;;;;5056409;27;92236;-71
2022/01/04 04:08:02;;;;;;;23.77;17.02;;;;;;;;;;5059229;27;93909;-71
2022/01/04 04:10:28;;;;;;;29.60;16.73;;;;;;;;;;5056371;27;92293;-71
2022/01/04 04:12:54;;;;;;;24.20;17.50;;;;;;;;;;5055826;27;92651;-71
2022/01/04 04:15:21;;;;;;;27.95;17.42;;;;;;;;;;5056744;27;93100;-71
2022/01/04 04:17:47;;;;;;;31.10;17.50;;;;;;;;;;5055806;27;92360;-70
2022/01/04 04:20:14;;;;;;;25.67;17.40;;;;;;;;;;5056409;27;92649;-72
2022/01/04 04:22:40;;;;;;;22.25;17.38;;;;;;;;;;5054392;27;95414;-71
2022/01/04 04:25:07;;;;;;;27.73;17.58;;;;;;;;;;5056011;27;92849;-71
2022/01/04 04:27:34;;;;;;;29.33;16.98;;;;;;;;;;5056697;27;93524;-71
2022/01/04 04:30:00;;;;;;;24.40;16.75;;;;;;;;;;5062684;27;93661;-71
2022/01/04 04:32:26;;;;;;;23.38;16.60;;;;;;;;;;5059638;27;93392;-71
2022/01/04 04:34:53;;;;;;;24.42;16.65;;;;;;;;;;5059497;27;93932;-71
2022/01/04 04:37:19;;;;;;;24.27;17.48;;;;;;;;;;5059304;27;92297;-71
2022/01/04 04:39:46;;;;;;;27.90;16.75;;;;;;;;;;5059863;27;93587;-71
2022/01/04 04:42:12;;;;;;;26.27;16.88;;;;;;;;;;5058846;27;93910;-71
2022/01/04 04:44:39;;;;;;;24.88;17.33;;;;;;;;;;5041146;27;92408;-71
2022/01/04 04:47:05;;;;;;;27.73;17.25;;;;;;;;;;5057623;27;94672;-70
2022/01/04 04:49:31;;;;;;;27.00;17.13;;;;;;;;;;5059052;27;92509;-71
2022/01/04 04:51:59;;;;;;;27.50;16.33;;;;;;;;;;5062012;27;92143;-71
2022/01/04 04:54:26;;;;;;;24.13;17.10;;;;;;;;;;5058922;27;93616;-71
2022/01/04 04:56:52;;;;;;;30.48;17.10;;;;;;;;;;5059304;27;92618;-70
2022/01/04 04:59:19;;;;;;;22.75;16.75;;;;;;;;;;5059224;27;93121;-70
2022/01/04 05:01:45;;;;;;;27.45;16.40;;;;;;;;;;5058889;27;93028;-71
2022/01/04 05:04:12;;;;;;;30.75;15.77;;;;;;;;;;5059301;27;91476;-70
2022/01/04 05:06:38;;;;;;;25.35;15.85;;;;;;;;;;5059100;27;92906;-71
2022/01/04 05:09:04;;;;;;;23.35;16.05;;;;;;;;;;5058586;27;93580;-71
2022/01/04 05:11:32;;;;;;;25.63;15.93;;;;;;;;;;5060421;27;94746;-70
2022/01/04 05:13:58;;;;;;;29.65;16.63;;;;;;;;;;5058620;27;94395;-70
2022/01/04 05:16:24;;;;;;;25.55;15.52;;;;;;;;;;5058326;27;92257;-71
2022/01/04 05:18:51;;;;;;;26.92;16.25;;;;;;;;;;5058740;27;93224;-70
2022/01/04 05:21:17;;;;;;;23.77;17.02;;;;;;;;;;5058596;27;93703;-70
2022/01/04 05:23:44;;;;;;;24.15;16.98;;;;;;;;;;5058121;27;92507;-70
2022/01/04 05:26:10;;;;;;;29.98;17.08;;;;;;;;;;5058814;27;92491;-70
2022/01/04 05:28:38;;;;;;;26.23;16.80;;;;;;;;;;5059100;27;92163;-70
2022/01/04 05:31:05;;;;;;;23.58;16.52;;;;;;;;;;5058687;27;92230;-71
2022/01/04 05:33:31;;;;;;;27.38;16.05;;;;;;;;;;5061725;27;93478;-71
2022/01/04 05:35:57;;;;;;;20.52;15.52;;;;;;;;;;5056654;27;94993;-70
2022/01/04 05:38:24;;;;;;;26.83;17.58;;;;;;;;;;5057606;27;95763;-70
2022/01/04 05:40:50;;;;;;;25.40;16.92;;;;;;;;;;5057873;27;93607;-70
2022/01/04 05:43:16;;;;;;;25.98;16.85;;;;;;;;;;5058377;27;92401;-71
2022/01/04 05:45:43;;;;;;;21.90;16.65;;;;;;;;;;5058320;27;93971;-70
2022/01/04 05:48:13;;;;;;;27.90;17.52;;;;;;;;;;5058232;27;94543;-70
2022/01/04 05:50:39;;;;;;;32.78;19.67;;;;;;;;;;5058232;27;92321;-71
2022/01/04 05:53:06;;;;;;;26.33;18.58;;;;;;;;;;5058495;27;93464;-70
2022/01/04 05:55:32;;;;;;;28.05;19.23;;;;;;;;;;5061345;27;93221;-70
2022/01/04 05:57:58;;;;;;;25.88;19.23;;;;;;;;;;5058187;27;93413;-70
2022/01/04 06:00:25;;;;;;;29.27;19.38;;;;;;;;;;5056331;27;95572;-70
2022/01/04 06:02:52;;;;;;;33.40;20.05;;;;;;;;;;5057968;27;92269;-70
2022/01/04 06:05:18;;;;;;;28.70;19.63;;;;;;;;;;5057763;27;93518;-70
2022/01/04 06:07:45;;;;;;;27.25;19.20;;;;;;;;;;5057706;27;93716;-69
2022/01/04 06:10:13;;;;;;;29.67;20.58;;;;;;;;;;5057998;27;92143;-69
2022/01/04 06:15:11;;;;;;;28.90;19.80;;;;;;;;;;5057821;27;92420;-69
2022/01/04 06:17:39;;;;;;;29.85;20.05;;;;;;;;;;5061282;27;91613;-69
2022/01/04 06:20:06;;;;;;;31.10;20.25;;;;;;;;;;5057245;27;92980;-69
2022/01/04 06:22:33;;;;;;;29.20;19.13;;;;;;;;;;5057918;27;92285;-70
2022/01/04 06:24:59;;;;;;;30.20;19.10;;;;;;;;;;5056597;27;94760;-69
2022/01/04 06:27:25;;;;;;;31.77;19.85;;;;;;;;;;5057621;27;93799;-69
2022/01/04 06:29:52;;;;;;;31.17;18.88;;;;;;;;;;5057835;27;92412;-70
2022/01/04 06:32:19;;;;;;;24.63;17.15;;;;;;;;;;5057633;27;92836;-69
2022/01/04 06:34:45;;;;;;;31.70;19.13;;;;;;;;;;5056840;27;93513;-69
2022/01/04 06:37:12;;;;;;;30.25;18.77;;;;;;;;;;5057274;27;92308;-69
2022/01/04 06:39:39;;;;;;;27.70;20.00;;;;;;;;;;5060484;27;93098;-70
2022/01/04 06:42:05;;;;;;;30.75;19.48;;;;;;;;;;5058045;27;91592;-69
2022/01/04 06:44:32;;;;;;;27.23;19.90;;;;;;;;;;5057465;27;93167;-70
2022/01/04 06:46:58;;;;;;;28.83;19.95;;;;;;;;;;5057189;27;93757;-69
2022/01/04 06:49:25;;;;;;;27.58;19.90;;;;;;;;;;5055372;27;94785;-70
2022/01/04 06:51:51;;;;;;;31.65;19.90;;;;;;;;;;5057192;27;95805;-70
2022/01/04 06:54:19;;;;;;;28.63;19.98;;;;;;;;;;5056939;27;94011;-69
2022/01/04 06:56:46;;;;;;;28.20;19.95;;;;;;;;;;5057203;27;92406;-70
2022/01/04 06:59:13;;;;;;;32.60;20.25;;;;;;;;;;5057174;27;93189;-70
2022/01/04 07:01:39;;;;;;;29.70;21.02;;;;;;;;;;5059742;27;93142;-70
2022/01/04 07:04:06;;;;;;;31.85;21.65;;;;;;;;;;5057004;27;92975;-70
2022/01/04 07:06:33;;;;;;;32.13;20.40;;;;;;;;;;5057602;27;92752;-71
2022/01/04 07:09:03;;;;;;;29.27;20.02;;;;;;;;;;5057060;27;92304;-70
2022/01/04 07:11:30;;;;;;;28.27;18.67;;;;;;;;;;5057084;27;92958;-70
2022/01/04 07:13:57;;;;;;;28.75;19.75;;;;;;;;;;5055169;27;95585;-70
2022/01/04 07:16:24;;;;;;;28.27;19.88;;;;;;;;;;5055864;27;92368;-71
2022/01/04 07:18:50;;;;;;;27.92;19.55;;;;;;;;;;5056829;27;94150;-70
2022/01/04 07:21:17;;;;;;;31.70;19.60;;;;;;;;;;5041678;27;95361;-70
2022/01/04 07:23:46;;;;;;;29.25;19.20;;;;;;;;;;5056846;27;92223;-70
2022/01/04 07:26:14;;;;;;;24.00;19.35;;;;;;;;;;5056909;27;93725;-70
2022/01/04 07:28:50;;;;;;;31.27;20.13;;;;;;;;;;5057020;27;92264;-70
2022/01/04 07:31:16;;;;;;;33.00;20.08;;;;;;;;;;5057289;27;93388;-70
2022/01/04 07:33:45;;;;;;;25.45;19.65;;;;;;;;;;5056830;27;93511;-70
2022/01/04 07:36:12;;;;;;;33.03;20.55;;;;;;;;;;5056683;27;92351;-70
2022/01/04 07:38:39;;;;;;;32.58;20.00;;;;;;;;;;5055081;27;94584;-70
2022/01/04 07:41:05;;;;;;;32.35;21.63;;;;;;;;;;5056689;27;93617;-70
2022/01/04 07:43:32;;;;;;;32.05;21.95;;;;;;;;;;5059216;27;92590;-70
2022/01/04 07:45:59;;;;;;;33.30;21.38;;;;;;;;;;5038876;27;93484;-71
2022/01/04 07:48:25;;;;;;;33.13;21.58;;;;;;;;;;5056565;27;92361;-70
2022/01/04 07:50:55;;;;;;;31.17;20.52;;;;;;;;;;5056518;27;93363;-69
2022/01/04 07:53:27;;;;;;;30.63;21.65;;;;;;;;;;5056552;27;93591;-70
2022/01/04 07:55:53;;;;;;;33.15;20.65;;;;;;;;;;5056954;27;91593;-70
2022/01/04 07:58:20;;;;;;;32.20;20.48;;;;;;;;;;5056196;27;92821;-70
2022/01/04 08:00:46;;;;;;;29.10;20.92;;;;;;;;;;5056149;27;93571;-70
2022/01/04 08:03:13;;;;;;;36.25;22.25;;;;;;;;;;5056963;27;94648;-70
2022/01/04 08:05:39;;;;;;;32.17;21.05;;;;;;;;;;5062742;27;95326;-71
2022/01/04 08:08:06;;;;;;;33.10;21.63;;;;;;;;;;5060070;27;92246;-70
2022/01/04 08:10:32;;;;;;;38.22;22.73;;;;;;;;;;5059345;27;93309;-71
2022/01/04 08:12:59;;;;;;;37.33;21.27;;;;;;;;;;5059284;27;93484;-71
2022/01/04 08:15:27;;;;;;;34.25;21.40;;;;;;;;;;5059668;27;92258;-71
2022/01/04 08:17:53;;;;;;;30.88;20.65;;;;;;;;;;5059833;27;93380;-70
2022/01/04 08:20:20;;;;;;;29.00;21.58;;;;;;;;;;5060270;27;92642;-69
2022/01/04 08:22:46;;;;;;;29.08;20.90;;;;;;;;;;5059741;27;92291;-70
2022/01/04 08:25:12;;;;;;;35.05;21.35;;;;;;;;;;5059346;27;93915;-70
2022/01/04 08:27:39;;;;;;;30.05;20.33;;;;;;;;;;5043153;27;96162;-71
2022/01/04 08:30:07;;;;;;;37.30;20.65;;;;;;;;;;5059598;27;95130;-70
2022/01/04 08:32:34;;;;;;;36.55;21.23;;;;;;;;;;5059458;27;93049;-71
2022/01/04 08:35:02;;;;;;;38.58;21.92;;;;;;;;;;5059526;27;92517;-70
2022/01/04 08:37:29;;;;;;;35.67;21.55;;;;;;;;;;5059363;27;93402;-71
2022/01/04 08:39:56;;;;;;;35.50;22.42;;;;;;;;;;5058622;27;93944;-71
2022/01/04 08:42:23;;;;;;;34.85;22.38;;;;;;;;;;5059437;27;92444;-71
2022/01/04 08:44:49;;;;;;;43.17;22.60;;;;;;;;;;5059816;27;93535;-71
2022/01/04 08:47:16;;;;;;;40.92;24.25;;;;;;;;;;5041075;27;98525;-71
2022/01/04 08:49:42;;;;;;;36.92;22.98;;;;;;;;;;5062193;27;92345;-71
2022/01/04 08:52:09;;;;;;;47.67;24.95;;;;;;;;;;5057474;27;95495;-71
2022/01/04 08:54:36;;;;;;;41.42;23.35;;;;;;;;;;5058908;27;92303;-71
2022/01/04 08:57:03;;;;;;;34.42;21.70;;;;;;;;;;5037657;27;93234;-71
2022/01/04 08:59:32;;;;;;;36.45;21.90;;;;;;;;;;4998492;27;94036;-71
2022/01/04 09:01:59;;;;;;;36.20;21.25;;;;;;;;;;5058858;27;92225;-72
2022/01/04 09:04:26;;;;;;;37.60;19.45;;;;;;;;;;5059060;27;93481;-71
2022/01/04 09:06:52;;;;;;;35.80;19.73;;;;;;;;;;5058752;27;93696;-71
2022/01/04 09:09:20;;;;;;;37.55;20.67;;;;;;;;;;5059332;27;91689;-70
2022/01/04 09:11:46;;;;;;;35.30;19.95;;;;;;;;;;5062050;27;92874;-71
2022/01/04 09:14:24;;;;;;;33.03;19.23;;;;;;;;;;5057684;27;92341;-72
2022/01/04 09:19:35;;;;;;;31.23;18.27;;;;;;;;;;5058405;27;93515;-70
2022/01/04 09:22:02;;;;;;;38.30;18.10;;;;;;;;;;5058826;27;92355;-70
2022/01/04 09:24:29;;;;;;;34.17;17.98;;;;;;;;;;5058543;27;93609;-72
2022/01/04 09:26:56;;;;;;;32.05;17.05;;;;;;;;;;5058532;27;93449;-72
2022/01/04 09:29:23;;;;;;;28.77;17.60;;;;;;;;;;5058768;27;92368;-72
2022/01/04 09:31:50;;;;;;;32.63;18.38;;;;;;;;;;5061562;27;93625;-72
2022/01/04 09:34:16;;;;;;;28.73;16.70;;;;;;;;;;5058611;27;91535;-70
2022/01/04 09:36:43;;;;;;;25.50;16.38;;;;;;;;;;5058318;27;93097;-72
2022/01/04 09:39:17;;;;;;;27.80;17.88;;;;;;;;;;5058315;27;93514;-73
2022/01/04 09:41:43;;;;;;;26.83;16.08;;;;;;;;;;5056964;27;94692;-73
2022/01/04 09:44:10;;;;;;;30.55;16.77;;;;;;;;;;5058531;27;95979;-71
2022/01/04 09:46:37;;;;;;;28.33;16.55;;;;;;;;;;5057792;27;93598;-70
2022/01/04 09:49:04;;;;;;;23.50;15.30;;;;;;;;;;5058367;27;92147;-69
2022/01/04 09:51:31;;;;;;;21.70;14.57;;;;;;;;;;5058502;27;93595;-69
2022/01/04 09:53:57;;;;;;;22.77;14.25;;;;;;;;;;5043041;27;96495;-69
2022/01/04 09:56:24;;;;;;;19.02;12.55;;;;;;;;;;5058297;27;93737;-70
2022/01/04 09:58:51;;;;;;;15.02;10.60;;;;;;;;;;5058631;27;92697;-69
2022/01/04 10:01:22;;;;;;;21.63;11.32;;;;;;;;;;5057722;27;92339;-70
2022/01/04 10:04:08;;;;;;;13.98;10.90;;;;;;;;;;5057767;27;94173;-70
2022/01/04 10:06:37;;;;;;;15.77;11.68;;;;;;;;;;5056376;27;95980;-70
2022/01/04 10:09:08;;;;;;;18.88;11.45;;;;;;;;;;5040363;27;92266;-71
2022/01/04 10:11:39;;;;;;;17.45;11.13;;;;;;;;;;5058008;27;93562;-71
2022/01/04 10:14:24;;;;;;;15.88;10.60;;;;;;;;;;5057762;27;92810;-72
2022/01/04 10:16:51;;;;;;;13.95;10.38;;;;;;;;;;5060806;27;92485;-72
2022/01/04 10:19:30;;;;;;;13.65;9.70;;;;;;;;;;5057822;27;93019;-70
2022/01/04 10:22:17;;;;;;;15.18;9.90;;;;;;;;;;5058285;27;92444;-72
2022/01/04 10:24:45;;;;;;;13.05;9.18;;;;;;;;;;5058920;27;94008;-72
2022/01/04 10:27:30;;;;;;;20.70;9.60;;;;;;;;;;5058467;27;93497;-70
2022/01/04 10:30:11;;;;;;;13.70;8.98;;;;;;;;;;5058714;27;92179;-70
2022/01/04 10:32:44;;;;;;;12.32;9.27;;;;;;;;;;5056536;27;94714;-70
2022/01/04 10:35:18;;;;;;;16.00;8.98;;;;;;;;;;5058264;27;93175;-70
2022/01/04 10:37:44;;;;;;;14.13;9.65;;;;;;;;;;5058418;27;92290;-70
2022/01/04 10:40:11;;;;;;;12.45;8.98;;;;;;;;;;5061276;27;92929;-70
2022/01/04 10:42:37;;;;;;;12.77;8.93;;;;;;;;;;5058251;27;92258;-71
2022/01/04 10:45:20;;;;;;;16.42;10.18;;;;;;;;;;5057922;27;93663;-71
2022/01/04 10:47:47;;;;;;;16.08;10.68;;;;;;;;;;5057104;27;93760;-69
2022/01/04 10:50:27;;;;;;;13.95;10.30;;;;;;;;;;5057854;27;91714;-71
2022/01/04 10:52:54;;;;;;;16.00;10.27;;;;;;;;;;5057372;27;92720;-70
2022/01/04 10:55:20;;;;;;;16.23;10.07;;;;;;;;;;5056825;27;93473;-71
2022/01/04 10:57:48;;;;;;;16.98;9.75;;;;;;;;;;5055451;27;94651;-70
2022/01/04 11:00:17;;;;;;;16.92;9.48;;;;;;;;;;5039508;27;98871;-71
2022/01/04 11:02:43;;;;;;;18.35;9.98;;;;;;;;;;5060771;27;93669;-69
2022/01/04 11:05:10;;;;;;;15.05;8.77;;;;;;;;;;5057133;27;93293;-71
2022/01/04 11:07:55;;;;;;;15.65;9.27;;;;;;;;;;5057705;27;93723;-70
2022/01/04 11:10:21;;;;;;;18.33;9.00;;;;;;;;;;5058232;27;92183;-69
2022/01/04 11:12:48;;;;;;;18.23;8.60;;;;;;;;;;5057795;27;92400;-69
2022/01/04 11:15:14;;;;;;;25.33;8.82;;;;;;;;;;5058151;27;93024;-70
2022/01/04 11:17:41;;;;;;;16.08;8.60;;;;;;;;;;5056903;27;92416;-72
2022/01/04 11:20:08;;;;;;;18.40;8.73;;;;;;;;;;5057376;27;93321;-69
2022/01/04 11:22:37;;;;;;;25.50;8.38;;;;;;;;;;4985486;27;98753;-70
2022/01/04 11:25:04;;;;;;;32.53;8.38;;;;;;;;;;5042551;27;92401;-70
2022/01/04 11:27:31;;;;;;;21.52;7.85;;;;;;;;;;5057301;27;93734;-69
2022/01/04 11:29:58;;;;;;;19.17;8.35;;;;;;;;;;5057545;27;92369;-70
2022/01/04 11:32:25;;;;;;;24.48;7.70;;;;;;;;;;5057527;27;93776;-71
2022/01/04 11:35:12;;;;;;;21.10;7.50;;;;;;;;;;5057221;27;93545;-74
2022/01/04 11:37:42;;;;;;;20.23;7.65;;;;;;;;;;5056567;27;92504;-72
2022/01/04 11:40:28;;;;;;;15.50;5.55;;;;;;;;;;5057680;27;93526;-72
2022/01/04 11:42:55;;;;;;;7.03;2.30;;;;;;;;;;5057139;27;93681;-72
2022/01/04 11:45:36;;;;;;;9.25;2.33;;;;;;;;;;5060342;27;92599;-71
2022/01/04 11:48:03;;;;;;;5.20;2.03;;;;;;;;;;5055230;27;95510;-71
2022/01/04 11:50:37;;;;;;;6.13;1.95;;;;;;;;;;5039056;27;92400;-71
2022/01/04 11:53:08;;;;;;;5.38;1.50;;;;;;;;;;5039028;27;94065;-70
2022/01/04 11:55:41;;;;;;;7.03;1.90;;;;;;;;;;5057003;27;93097;-70
2022/01/04 11:58:13;;;;;;;4.22;1.80;;;;;;;;;;5056791;27;92335;-71
2022/01/04 12:00:41;;;;;;;3.90;1.50;;;;;;;;;;5057210;27;93455;-70
2022/01/04 12:03:09;;;;;;;2.92;1.50;;;;;;;;;;5056988;27;93524;-72
2022/01/04 12:05:39;;;;;;;3.42;1.35;;;;;;;;;;5057775;27;91472;-72
2022/01/04 12:08:18;;;;;;;4.68;1.70;;;;;;;;;;5060255;27;92700;-74
2022/01/04 12:10:46;;;;;;;4.60;1.63;;;;;;;;;;5056878;27;92337;-71
2022/01/04 12:13:20;;;;;;;4.78;1.70;;;;;;;;;;5055389;27;94727;-74
2022/01/04 12:15:51;;;;;;;4.35;1.40;;;;;;;;;;5056778;27;93524;-71
2022/01/04 12:18:23;;;;;;;5.50;1.85;;;;;;;;;;5051090;27;92366;-72
2022/01/04 12:20:58;;;;;;;3.33;1.58;;;;;;;;;;5023789;28;93341;-72
2022/01/04 12:23:31;;;;;;;6.43;2.05;;;;;;;;;;5025822;28;93599;-72
2022/01/04 12:28:29;;;;;;;7.50;2.00;;;;;;;;;;5016619;28;93321;-72
2022/01/04 12:31:18;;;;;;;6.20;1.77;;;;;;;;;;5020002;28;91849;-72
2022/01/04 12:33:49;;;;;;;3.13;1.52;;;;;;;;;;5016199;28;92620;-72
2022/01/04 12:36:25;;;;;;;1.80;1.70;;;;;;;;;;5016163;28;93695;-72
2022/01/04 12:38:56;;;;;;;9.88;1.73;;;;;;;;;;5014813;28;94805;-72
2022/01/04 12:41:23;;;;;;;8.18;1.90;;;;;;;;;;4998288;28;97084;-73
2022/01/04 12:43:50;;;;;;;2.20;1.77;;;;;;;;;;5015994;28;93185;-72
2022/01/04 12:46:30;;;;;;;5.82;1.40;;;;;;;;;;5015750;28;92401;-72
2022/01/04 12:49:01;;;;;;;3.72;1.27;;;;;;;;;;5017472;28;93311;-72
2022/01/04 12:51:40;;;;;;;2.25;1.48;;;;;;;;;;5019382;28;93769;-71
2022/01/04 12:54:06;;;;;;;2.85;1.58;;;;;;;;;;5022753;28;92301;-73
2022/01/04 12:56:33;;;;;;;1.75;1.35;;;;;;;;;;5019402;28;93297;-72
2022/01/04 12:58:59;;;;;;;2.78;1.38;;;;;;;;;;5019630;28;92323;-73
2022/01/04 13:01:27;;;;;;;1.42;1.33;;;;;;;;;;5019189;28;93546;-71
2022/01/04 13:03:54;;;;;;;3.45;1.30;;;;;;;;;;5000029;28;96022;-72
2022/01/04 13:06:21;;;;;;;3.08;1.55;;;;;;;;;;5019382;28;92303;-71
2022/01/04 13:08:51;;;;;;;2.28;1.10;;;;;;;;;;5019209;28;93825;-71
2022/01/04 13:11:18;;;;;;;3.17;1.25;;;;;;;;;;5019220;28;94155;-72
2022/01/04 13:13:54;;;;;;;0.75;0.75;;;;;;;;;;5019047;28;92267;-71
2022/01/04 13:16:29;;;;;;;1.77;0.70;;;;;;;;;;5021914;28;93317;-70
2022/01/04 13:19:11;;;;;;;2.92;0.93;;;;;;;;;;5019275;28;92250;-71
2022/01/04 13:21:37;;;;;;;1.25;0.82;;;;;;;;;;5019135;28;93294;-71
2022/01/04 13:24:04;;;;;;;3.53;1.13;;;;;;;;;;5019004;28;93696;-71
2022/01/04 13:26:30;;;;;;;5.35;1.05;;;;;;;;;;5018841;28;92332;-74
2022/01/04 13:28:58;;;;;;;7.90;1.05;;;;;;;;;;5017515;28;96546;-73
2022/01/04 13:31:24;;;;;;;6.72;1.23;;;;;;;;;;5018746;28;93666;-74
2022/01/04 13:33:51;;;;;;;7.47;1.15;;;;;;;;;;5018588;28;92350;-72
2022/01/04 13:36:20;;;;;;;3.85;1.30;;;;;;;;;;5021543;28;92525;-73
2022/01/04 13:38:48;;;;;;;6.97;1.00;;;;;;;;;;5018409;28;92231;-73
2022/01/04 13:41:15;;;;;;;2.65;1.20;;;;;;;;;;5018325;28;93401;-75
2022/01/04 13:43:45;;;;;;;2.60;1.02;;;;;;;;;;5018567;28;93613;-73
2022/01/04 13:46:12;;;;;;;3.45;0.98;;;;;;;;;;5019349;28;91671;-74
2022/01/04 13:48:40;;;;;;;10.30;1.55;;;;;;;;;;5018648;28;92309;-72
2022/01/04 13:51:17;;;;;;;5.70;1.55;;;;;;;;;;5029610;27;93724;-74
2022/01/04 13:53:45;;;;;;;6.30;1.35;;;;;;;;;;5036670;28;94717;-73
2022/01/04 13:56:14;;;;;;;7.32;1.40;;;;;;;;;;5057855;27;96069;-73
2022/01/04 13:58:40;;;;;;;4.75;1.10;;;;;;;;;;5061866;27;93472;-72
2022/01/04 14:01:10;;;;;;;12.63;2.33;;;;;;;;;;5058002;27;92757;-73
2022/01/04 14:03:37;;;;;;;4.25;1.40;;;;;;;;;;5058900;27;93975;-74
2022/01/04 14:06:04;;;;;;;4.18;1.10;;;;;;;;;;5058812;27;93264;-73
2022/01/04 14:08:49;;;;;;;5.95;1.40;;;;;;;;;;5058690;27;93416;-72
2022/01/04 14:11:28;;;;;;;2.83;0.85;;;;;;;;;;5059172;27;92873;-72
2022/01/04 14:13:56;;;;;;;4.45;0.98;;;;;;;;;;5058691;27;92413;-71
2022/01/04 14:16:22;;;;;;;2.13;0.85;;;;;;;;;;5058485;27;93657;-71
2022/01/04 14:19:05;;;;;;;4.93;0.93;;;;;;;;;;5056424;27;95406;-71
2022/01/04 14:21:39;;;;;;;9.50;1.25;;;;;;;;;;5061795;27;92390;-71
2022/01/04 14:24:25;;;;;;;4.75;1.00;;;;;;;;;;5058463;27;93855;-70
2022/01/04 14:26:51;;;;;;;1.27;0.70;;;;;;;;;;5058417;27;92229;-72
2022/01/04 14:29:38;;;;;;;3.20;0.90;;;;;;;;;;5039925;27;94059;-72
2022/01/04 14:32:08;;;;;;;9.48;1.08;;;;;;;;;;5058382;27;93491;-72
2022/01/04 14:34:36;;;;;;;6.30;1.10;;;;;;;;;;5058406;27;92262;-72
2022/01/04 14:37:02;;;;;;;2.35;0.80;;;;;;;;;;5058795;27;93376;-71
2022/01/04 14:39:29;;;;;;;8.45;1.23;;;;;;;;;;5058292;27;93008;-71